Historique des mesures à Cassis (13260), France
Quotidien Résumé Juin 10, 2017 Unités:  Métrique    US   Métrique/US
« Précédent (Jour)
Suivant (Jour) »
Quotidien Hebdomadaire Mensuel Annuel Période au choix
  Maximum: Minimum: Moyenne:
Température: TemperatureC °C 20.2 °C 24.1 °C
Point de rosée: DewpointC °C 10.7 °C 14.4 °C
Humidité: Humidity % 40 % 52 %
Vitesse du vent: 0 km/h 0 km/h 6.3 km/h
Rafales: 0 km/h - -
Vent:- - South
Pression: PressurehPa hPa 1011.7 hPa -
Précipitations: 0.0 mm    
Historical Graphs
 
 
Mesures pour : Juin 10, 2017
Heure Temperature Point de rosée Pression Vent Vitesse du vent Rafales Humidité Pluie (par heure) Conditions
TemperatureC °C DewpointC °C PressurehPa hPa Calm     Humidity % HourlyPrecipMM mm SoftwareType W/m2
00:10 20.2 °C 12.2 °C 1013.1 hPa Calm   6.4 km/h 60 % 0.0 mm open2300-1.11 W/m2
01:11 20.3 °C 11.5 °C 1013.1 hPa North 11.6 km/h 12.2 km/h 57 % 0.0 mm open2300-1.11 W/m2
02:10 20.7 °C 11.6 °C 1012.8 hPa Calm   3.4 km/h 56 % 0.0 mm open2300-1.11 W/m2
03:10 20.4 °C 10.7 °C 1012.1 hPa ENE 5.6 km/h 5.6 km/h 54 % 0.0 mm open2300-1.11 W/m2
04:10 21.3 °C 10.7 °C 1012.1 hPa Calm   4.2 km/h 51 % 0.0 mm open2300-1.11 W/m2
06:10 21.4 °C 12.2 °C 1011.7 hPa North 6.4 km/h 9.3 km/h 56 % 0.0 mm open2300-1.11 W/m2
07:10 21.6 °C 13.6 °C 1012.1 hPa WNW 13.2 km/h 16.9 km/h 60 % 0.0 mm open2300-1.11 W/m2
08:10 24.1 °C 14.8 °C 1012.4 hPa NW 3.4 km/h 9.3 km/h 56 % 0.0 mm open2300-1.11 W/m2
09:10 24.5 °C 14.8 °C 1012.8 hPa SSW 9.8 km/h 9.8 km/h 55 % 0.0 mm open2300-1.11 W/m2
10:10 26.1 °C 16.1 °C 1012.8 hPa SSE 10.9 km/h 10.9 km/h 54 % 0.0 mm open2300-1.11 W/m2
11:10 29.2 °C 16.0 °C 1012.8 hPa South 12.2 km/h 12.2 km/h 45 % 0.0 mm open2300-1.11 W/m2
12:11 30.8 °C 16.4 °C 1012.8 hPa SSW 12.2 km/h 13.2 km/h 42 % 0.0 mm open2300-1.11 W/m2
13:10 31.9 °C 16.6 °C 1012.4 hPa WSW 14.5 km/h 14.5 km/h 40 % 0.0 mm open2300-1.11 W/m2
14:11 31.5 °C 17.3 °C 1012.4 hPa SE 19.6 km/h 19.6 km/h 43 % 0.0 mm open2300-1.11 W/m2
15:10 29.6 °C 17.8 °C 1012.8 hPa SSE 14 km/h 14 km/h 49 % 0.0 mm open2300-1.11 W/m2
16:11 28.6 °C 17.2 °C 1012.8 hPa WSW 5.6 km/h 9.8 km/h 50 % 0.0 mm open2300-1.11 W/m2
17:10 28.1 °C 17.3 °C 1012.4 hPa South 4.7 km/h 8.9 km/h 52 % 0.0 mm open2300-1.11 W/m2
18:11 27.4 °C 16.9 °C 1012.4 hPa SSE 4.7 km/h 6.4 km/h 53 % 0.0 mm open2300-1.11 W/m2
19:10 26.3 °C 17.1 °C 1013.1 hPa South 1.8 km/h 6.4 km/h 57 % 0.0 mm open2300-1.11 W/m2
20:10 25.1 °C 16.2 °C 1013.1 hPa Calm   2.9 km/h 58 % 0.0 mm open2300-1.11 W/m2
21:10 24.4 °C 16.2 °C 1013.1 hPa Calm     60 % 0.0 mm open2300-1.11 W/m2
22:10 23.3 °C 16.1 °C 1013.4 hPa Calm     64 % 0.0 mm open2300-1.11 W/m2
23:10 22.3 °C 15.4 °C 1014.1 hPa Calm     65 % 0.0 mm open2300-1.11 W/m2
Observations météo à CASSIS
WU-History script by Weather Underground - 1 mb